Time;durP1;ratioP1;P1;durP2;ratioP2;P2;SDS_P1;SDS_P2;PMS_P1;PMS_P2;Temp;Humidity;BMP_temperature;BMP_pressure;BME280_temperature;BME280_humidity;BME280_pressure;Samples;Min_cycle;Max_cycle;Signal;HPM_P1;HPM_P2
2022/08/22 00:01:10;;;;;;;;;;;14.40;99.90;;;;;;5057329;28;19978;-76
2022/08/22 00:03:47;;;;;;;;;;;14.40;99.90;;;;;;5044740;28;19920;-75
2022/08/22 00:06:33;;;;;;;;;;;14.40;99.90;;;;;;5062538;28;19951;-75
2022/08/22 00:09:15;;;;;;;;;;;14.40;99.90;;;;;;5057571;28;19920;-75
2022/08/22 00:11:43;;;;;;;;;;;14.40;99.90;;;;;;5057612;28;20427;-75
2022/08/22 00:14:18;;;;;;;;;;;14.40;99.90;;;;;;5040563;28;20034;-75
2022/08/22 00:16:43;;;;;;;;;;;14.40;99.90;;;;;;5084535;28;19917;-76
2022/08/22 00:19:12;;;;;;;;;;;14.30;99.90;;;;;;5036354;28;19924;-75
2022/08/22 00:21:45;;;;;;;;;;;14.30;99.90;;;;;;5061642;28;19920;-75
2022/08/22 00:24:14;;;;;;;;;;;14.30;99.90;;;;;;5077040;28;19916;-75
2022/08/22 00:26:39;;;;;;;;;;;14.40;99.90;;;;;;5057266;28;19924;-76
2022/08/22 00:29:07;;;;;;;;;;;14.40;99.90;;;;;;5065378;28;19973;-75
2022/08/22 00:31:42;;;;;;;;;;;14.40;99.90;;;;;;5034795;28;20288;-75
2022/08/22 00:34:28;;;;;;;;;;;14.30;99.90;;;;;;5052827;28;19927;-75
2022/08/22 00:36:57;;;;;;;;;;;14.40;99.90;;;;;;5058736;28;19924;-76
2022/08/22 00:39:28;;;;;;;;;;;14.30;99.90;;;;;;5047977;28;19959;-75
2022/08/22 00:42:11;;;;;;;;;;;14.30;99.90;;;;;;5040542;28;19921;-75
2022/08/22 00:44:45;;;;;;;;;;;14.30;99.90;;;;;;5082424;28;20510;-75
2022/08/22 00:47:18;;;;;;;;;;;14.30;99.90;;;;;;5058522;28;20296;-75
2022/08/22 00:49:59;;;;;;;;;;;14.30;99.90;;;;;;5056302;28;21372;-75
2022/08/22 00:52:47;;;;;;;;;;;14.30;99.90;;;;;;5057796;28;19971;-75
2022/08/22 00:55:16;;;;;;;;;;;14.30;99.90;;;;;;5056734;28;20411;-75
2022/08/22 00:57:44;;;;;;;;;;;14.30;99.90;;;;;;5053584;28;20364;-75
2022/08/22 01:00:13;;;;;;;;;;;14.20;99.90;;;;;;5042188;28;19966;-75
2022/08/22 01:02:49;;;;;;;;;;;14.20;99.90;;;;;;5055007;28;19920;-76
2022/08/22 01:05:21;;;;;;;;;;;14.20;99.90;;;;;;5055893;28;19947;-75
2022/08/22 01:07:53;;;;;;;;;;;14.20;99.90;;;;;;5046010;28;19924;-75
2022/08/22 01:10:37;;;;;;;;;;;14.20;99.90;;;;;;5054079;28;20364;-75
2022/08/22 01:13:02;;;;;;;;;;;14.20;99.90;;;;;;5055287;28;20284;-76
2022/08/22 01:15:30;;;;;;;;;;;14.20;99.90;;;;;;5040094;28;19927;-75
2022/08/22 01:18:08;;;;;;;;;;;14.20;99.90;;;;;;5055561;28;19920;-75
2022/08/22 01:20:52;;;;;;;;;;;14.20;99.90;;;;;;5042992;28;19932;-75
2022/08/22 01:23:18;;;;;;;;;;;14.20;99.90;;;;;;5047522;28;19920;-75
2022/08/22 01:26:02;;;;;;;;;;;14.20;99.90;;;;;;5050624;28;19977;-75
2022/08/22 01:28:28;;;;;;;;;;;14.20;99.90;;;;;;5046857;28;19959;-75
2022/08/22 01:30:59;;;;;;;;;;;14.20;99.90;;;;;;5066375;28;19983;-75
2022/08/22 01:33:44;;;;;;;;;;;14.20;99.90;;;;;;5052741;28;19921;-76
2022/08/22 01:36:29;;;;;;;;;;;14.10;99.90;;;;;;5053127;28;19924;-76
2022/08/22 01:39:08;;;;;;;;;;;14.10;99.90;;;;;;5034612;28;21824;-75
2022/08/22 01:41:39;;;;;;;;;;;14.10;99.90;;;;;;5073872;28;20312;-75
2022/08/22 01:44:14;;;;;;;;;;;14.00;99.90;;;;;;5055858;28;19920;-76
2022/08/22 01:46:41;;;;;;;;;;;14.00;99.90;;;;;;5057139;28;19986;-75
2022/08/22 01:49:10;;;;;;;;;;;14.00;99.90;;;;;;5052959;28;19924;-75
2022/08/22 01:51:55;;;;;;;;;;;13.90;99.90;;;;;;5045211;28;19928;-75
2022/08/22 01:54:20;;;;;;;;;;;13.90;99.90;;;;;;5043888;28;19920;-75
2022/08/22 01:56:46;;;;;;;;;;;13.90;99.90;;;;;;5054058;28;19927;-75
2022/08/22 01:59:19;;;;;;;;;;;13.80;99.90;;;;;;5054240;28;19920;-75
2022/08/22 02:01:51;;;;;;;;;;;13.70;99.90;;;;;;5051535;28;19920;-75
2022/08/22 02:04:35;;;;;;;;;;;13.80;99.90;;;;;;5057252;28;20295;-75
2022/08/22 02:07:04;;;;;;;;;;;13.70;99.90;;;;;;5060482;28;19924;-75
2022/08/22 02:09:43;;;;;;;;;;;13.70;99.90;;;;;;5037069;28;19923;-75
2022/08/22 02:12:20;;;;;;;;;;;13.70;99.90;;;;;;5056152;28;19920;-76
2022/08/22 02:15:09;;;;;;;;;;;13.60;99.90;;;;;;5044514;28;20006;-76
2022/08/22 02:17:49;;;;;;;;;;;13.60;99.90;;;;;;5052710;28;20039;-76
2022/08/22 02:20:32;;;;;;;;;;;13.60;99.90;;;;;;5089011;28;19967;-76
2022/08/22 02:23:17;;;;;;;;;;;13.50;99.90;;;;;;5059616;28;19921;-76
2022/08/22 02:26:02;;;;;;;;;;;13.50;99.90;;;;;;5062772;28;19993;-76
2022/08/22 02:28:30;;;;;;;;;;;13.40;99.90;;;;;;5067629;28;19924;-76
2022/08/22 02:31:03;;;;;;;;;;;13.40;99.90;;;;;;5063497;28;19917;-76
2022/08/22 02:33:32;;;;;;;;;;;13.30;99.90;;;;;;5088815;28;19931;-76
2022/08/22 02:36:00;;;;;;;;;;;13.20;99.90;;;;;;5053803;28;20010;-76
2022/08/22 02:38:39;;;;;;;;;;;13.20;99.90;;;;;;5064397;28;19920;-75
2022/08/22 02:41:22;;;;;;;;;;;13.20;99.90;;;;;;5054832;28;20376;-76
2022/08/22 02:43:54;;;;;;;;;;;13.10;99.90;;;;;;5063150;28;20453;-75
2022/08/22 02:46:31;;;;;;;;;;;13.10;99.90;;;;;;5066499;28;19923;-75
2022/08/22 02:49:01;;;;;;;;;;;13.00;99.90;;;;;;5066978;28;19990;-75
2022/08/22 02:51:34;;;;;;;;;;;13.00;99.90;;;;;;5047917;28;19920;-76
2022/08/22 02:54:13;;;;;;;;;;;12.90;99.90;;;;;;5067152;28;19927;-75
2022/08/22 02:56:39;;;;;;;;;;;12.90;99.90;;;;;;5050547;28;19920;-75
2022/08/22 02:59:23;;;;;;;;;;;12.90;99.90;;;;;;5064074;28;19920;-76
2022/08/22 03:01:49;;;;;;;;;;;12.90;99.90;;;;;;5050235;28;19967;-76
2022/08/22 03:04:14;;;;;;;;;;;12.90;99.90;;;;;;5037699;28;19994;-75
2022/08/22 03:06:44;;;;;;;;;;;12.80;99.90;;;;;;5048330;28;19920;-75
2022/08/22 03:09:13;;;;;;;;;;;12.70;99.90;;;;;;5058339;28;19970;-76
2022/08/22 03:11:41;;;;;;;;;;;12.80;99.90;;;;;;5067714;28;19926;-75
2022/08/22 03:14:21;;;;;;;;;;;12.70;99.90;;;;;;5065531;28;20398;-75
2022/08/22 03:16:51;;;;;;;;;;;12.70;99.90;;;;;;5047158;28;19920;-75
2022/08/22 03:19:29;;;;;;;;;;;12.60;99.90;;;;;;5050648;28;19920;-75
2022/08/22 03:21:59;;;;;;;;;;;12.60;99.90;;;;;;5065537;28;19926;-76
2022/08/22 03:24:37;;;;;;;;;;;12.60;99.90;;;;;;5042680;28;19928;-76
2022/08/22 03:27:12;;;;;;;;;;;12.60;99.90;;;;;;5067441;28;20367;-76
2022/08/22 03:29:42;;;;;;;;;;;12.60;99.90;;;;;;5049959;28;19916;-76
2022/08/22 03:32:08;;;;;;;;;;;12.50;99.90;;;;;;5063453;28;19975;-76
2022/08/22 03:34:34;;;;;;;;;;;12.50;99.90;;;;;;5065207;28;19923;-76
2022/08/22 03:37:06;;;;;;;;;;;12.50;99.90;;;;;;5067580;28;20329;-76
2022/08/22 03:39:38;;;;;;;;;;;12.50;99.90;;;;;;5045925;28;20007;-75
2022/08/22 03:42:26;;;;;;;;;;;12.50;99.90;;;;;;5058078;28;19924;-76
2022/08/22 03:44:52;;;;;;;;;;;12.40;99.90;;;;;;5037035;28;19920;-75
2022/08/22 03:47:33;;;;;;;;;;;12.40;99.90;;;;;;5067570;28;19920;-75
2022/08/22 03:50:13;;;;;;;;;;;12.40;99.90;;;;;;5050168;28;19916;-75
2022/08/22 03:53:08;;;;;;;;;;;12.40;99.90;;;;;;5040681;28;20219;-75
2022/08/22 03:55:39;;;;;;;;;;;12.30;99.90;;;;;;5094792;28;20023;-75
2022/08/22 03:58:05;;;;;;;;;;;12.30;99.90;;;;;;5070870;28;20019;-76
2022/08/22 04:00:43;;;;;;;;;;;12.30;99.90;;;;;;5070876;28;20022;-76
2022/08/22 04:03:29;;;;;;;;;;;12.20;99.90;;;;;;5043592;28;19931;-75
2022/08/22 04:06:04;;;;;;;;;;;12.20;99.90;;;;;;5063192;28;19921;-75
2022/08/22 04:08:38;;;;;;;;;;;12.10;99.90;;;;;;5067110;28;20284;-75
2022/08/22 04:11:10;;;;;;;;;;;12.20;99.90;;;;;;5047385;28;19982;-75
2022/08/22 04:13:39;;;;;;;;;;;12.10;99.90;;;;;;5066461;28;19921;-75
2022/08/22 04:16:13;;;;;;;;;;;12.10;99.90;;;;;;5067922;28;20717;-75
2022/08/22 04:18:38;;;;;;;;;;;12.20;99.90;;;;;;5054136;28;19920;-75
2022/08/22 04:21:13;;;;;;;;;;;12.20;99.90;;;;;;5047965;28;19971;-75
2022/08/22 04:23:57;;;;;;;;;;;12.10;99.90;;;;;;5043971;28;19928;-75
2022/08/22 04:26:36;;;;;;;;;;;12.20;99.90;;;;;;5067165;28;19973;-75
2022/08/22 04:29:06;;;;;;;;;;;12.20;99.90;;;;;;5052045;28;19930;-75
2022/08/22 04:31:35;;;;;;;;;;;12.20;99.90;;;;;;5054078;28;20433;-75
2022/08/22 04:34:24;;;;;;;;;;;12.20;99.90;;;;;;5061342;28;19921;-76
2022/08/22 04:36:54;;;;;;;;;;;12.20;99.90;;;;;;5059891;28;20001;-75
2022/08/22 04:39:22;;;;;;;;;;;12.10;99.90;;;;;;5064856;28;19931;-75
2022/08/22 04:41:48;;;;;;;;;;;12.10;99.90;;;;;;5056679;28;19920;-75
2022/08/22 04:44:26;;;;;;;;;;;12.10;99.90;;;;;;5070237;28;19997;-75
2022/08/22 04:47:01;;;;;;;;;;;12.10;99.90;;;;;;5068785;28;19917;-76
2022/08/22 04:49:31;;;;;;;;;;;12.00;99.90;;;;;;5067895;28;19931;-75
2022/08/22 04:52:20;;;;;;;;;;;12.10;99.90;;;;;;5061391;28;19924;-75
2022/08/22 04:55:04;;;;;;;;;;;12.00;99.90;;;;;;5045344;28;20002;-75
2022/08/22 04:57:41;;;;;;;;;;;12.00;99.90;;;;;;5050690;28;20002;-75
2022/08/22 05:00:09;;;;;;;;;;;12.00;99.90;;;;;;5042390;28;20299;-75
2022/08/22 05:02:37;;;;;;;;;;;11.90;99.90;;;;;;5063984;28;19920;-75
2022/08/22 05:05:04;;;;;;;;;;;11.90;99.90;;;;;;5050332;28;19952;-75
2022/08/22 05:07:38;;;;;;;;;;;11.90;99.90;;;;;;5066309;28;19920;-75
2022/08/22 05:10:07;;;;;;;;;;;11.90;99.90;;;;;;5059016;28;20573;-76
2022/08/22 05:12:36;;;;;;;;;;;11.90;99.90;;;;;;5043390;28;19923;-76
2022/08/22 05:15:07;;;;;;;;;;;11.90;99.90;;;;;;5069680;28;20321;-75
2022/08/22 05:17:33;;;;;;;;;;;12.00;99.90;;;;;;5049275;28;19920;-75
2022/08/22 05:20:01;;;;;;;;;;;12.00;99.90;;;;;;5067463;28;19943;-75
2022/08/22 05:22:28;;;;;;;;;;;12.00;99.90;;;;;;5046054;28;20284;-76
2022/08/22 05:24:56;;;;;;;;;;;12.00;99.90;;;;;;5056406;28;20310;-76
2022/08/22 05:27:27;;;;;;;;;;;12.10;99.90;;;;;;5085234;28;19932;-76
2022/08/22 05:29:59;;;;;;;;;;;12.10;99.90;;;;;;5035554;28;19982;-75
2022/08/22 05:32:27;;;;;;;;;;;12.30;99.90;;;;;;5057283;28;19920;-75
2022/08/22 05:34:56;;;;;;;;;;;12.30;99.90;;;;;;5072308;28;19921;-76
2022/08/22 05:37:24;;;;;;;;;;;12.40;99.90;;;;;;5077247;28;19920;-75
2022/08/22 05:39:52;;;;;;;;;;;12.40;99.90;;;;;;5062566;28;19931;-75
2022/08/22 05:42:24;;;;;;;;;;;12.50;99.90;;;;;;5047897;28;19927;-75
2022/08/22 05:44:49;;;;;;;;;;;12.70;99.90;;;;;;5037444;28;20334;-75
2022/08/22 05:47:23;;;;;;;;;;;12.80;99.90;;;;;;5055188;28;19924;-75
2022/08/22 05:50:05;;;;;;;;;;;12.90;99.90;;;;;;5034202;28;20103;-75
2022/08/22 05:52:50;;;;;;;;;;;13.00;99.90;;;;;;5086806;28;19929;-75
2022/08/22 05:55:21;;;;;;;;;;;13.20;99.90;;;;;;5054487;28;20351;-75
2022/08/22 05:57:50;;;;;;;;;;;13.40;99.90;;;;;;5053699;28;19947;-75
2022/08/22 06:00:20;;;;;;;;;;;13.60;99.90;;;;;;5052137;28;20557;-75
2022/08/22 06:02:47;;;;;;;;;;;13.80;99.90;;;;;;5058852;28;19970;-76
2022/08/22 06:05:18;;;;;;;;;;;13.90;99.90;;;;;;5066915;28;19920;-75
2022/08/22 06:07:45;;;;;;;;;;;14.10;99.90;;;;;;5044039;28;19968;-75
2022/08/22 06:10:24;;;;;;;;;;;14.30;99.90;;;;;;5051550;28;19924;-75
2022/08/22 06:12:54;;;;;;;;;;;14.50;99.90;;;;;;5039251;28;19931;-75
2022/08/22 06:15:22;;;;;;;;;;;14.70;99.90;;;;;;5053737;28;20292;-75
2022/08/22 06:17:56;;;;;;;;;;;14.90;99.90;;;;;;5051672;28;19920;-76
2022/08/22 06:20:23;;;;;;;;;;;15.10;99.90;;;;;;5066022;28;20007;-76
2022/08/22 06:22:52;;;;;;;;;;;15.20;99.90;;;;;;5059299;28;19967;-75
2022/08/22 06:25:21;;;;;;;;;;;15.30;99.90;;;;;;5095016;28;20283;-75
2022/08/22 06:27:47;;;;;;;;;;;15.50;99.90;;;;;;5053475;28;19925;-76
2022/08/22 06:30:13;;;;;;;;;;;15.60;99.90;;;;;;5056037;28;20098;-75
2022/08/22 06:32:43;;;;;;;;;;;15.80;99.90;;;;;;5045330;28;20001;-76
2022/08/22 06:36:29;;;;;;;;;;;15.90;99.90;;;;;;5066727;28;20364;-75
2022/08/22 06:38:16;;;;;;;;;;;16.00;99.90;;;;;;5092680;28;19923;-75
2022/08/22 06:40:42;;;;;;;;;;;16.20;99.90;;;;;;5054650;28;20401;-76
2022/08/22 06:43:09;;;;;;;;;;;16.40;99.90;;;;;;5062449;28;19924;-76
2022/08/22 06:45:35;;;;;;;;;;;16.50;99.90;;;;;;5050411;28;20364;-76
2022/08/22 06:48:03;;;;;;;;;;;16.60;99.90;;;;;;5067814;28;19931;-76
2022/08/22 06:50:30;;;;;;;;;;;16.70;99.90;;;;;;5068216;28;20304;-76
2022/08/22 06:52:59;;;;;;;;;;;16.80;99.90;;;;;;5043928;28;20343;-76
2022/08/22 06:55:26;;;;;;;;;;;16.80;99.90;;;;;;5068078;28;19928;-76
2022/08/22 06:57:54;;;;;;;;;;;16.90;99.90;;;;;;5050879;28;19924;-76
2022/08/22 07:00:20;;;;;;;;;;;16.90;99.90;;;;;;5064702;28;19931;-76
2022/08/22 07:02:50;;;;;;;;;;;17.00;99.90;;;;;;5044319;28;19924;-76
2022/08/22 07:05:20;;;;;;;;;;;17.10;99.90;;;;;;5091160;28;19920;-76
2022/08/22 07:07:46;;;;;;;;;;;17.20;99.90;;;;;;5068075;28;19998;-76
2022/08/22 07:10:12;;;;;;;;;;;17.20;99.90;;;;;;5067612;28;19924;-77
2022/08/22 07:12:42;;;;;;;;;;;17.30;99.90;;;;;;5063965;28;20258;-76
2022/08/22 07:15:17;;;;;;;;;;;17.40;99.90;;;;;;5061781;28;19927;-77
2022/08/22 07:17:48;;;;;;;;;;;17.50;99.90;;;;;;5050644;28;19999;-76
2022/08/22 07:20:21;;;;;;;;;;;17.60;99.90;;;;;;5058571;28;19925;-76
2022/08/22 07:22:56;;;;;;;;;;;17.60;99.90;;;;;;5050410;28;19999;-76
2022/08/22 07:25:23;;;;;;;;;;;17.70;99.90;;;;;;5063730;28;19916;-76
2022/08/22 07:28:07;;;;;;;;;;;17.80;99.90;;;;;;5066863;28;19930;-76
2022/08/22 07:30:46;;;;;;;;;;;17.90;99.90;;;;;;5068610;28;19931;-76
2022/08/22 07:33:30;;;;;;;;;;;18.10;99.90;;;;;;5071851;28;19927;-77
2022/08/22 07:36:00;;;;;;;;;;;18.20;99.90;;;;;;5060330;28;19920;-77
2022/08/22 07:38:44;;;;;;;;;;;18.30;99.90;;;;;;5073353;28;19966;-77
2022/08/22 07:41:19;;;;;;;;;;;18.40;99.90;;;;;;5054362;28;19924;-77
2022/08/22 07:43:53;;;;;;;;;;;18.50;99.90;;;;;;5061674;28;19943;-77
2022/08/22 07:46:31;;;;;;;;;;;18.70;99.90;;;;;;5066805;28;20285;-77
2022/08/22 07:49:02;;;;;;;;;;;18.80;99.90;;;;;;5071370;28;20349;-77
2022/08/22 07:51:34;;;;;;;;;;;18.90;99.90;;;;;;5063096;28;19924;-77
2022/08/22 07:54:05;;;;;;;;;;;19.00;99.90;;;;;;5070768;28;19920;-77
2022/08/22 07:56:34;;;;;;;;;;;19.10;99.90;;;;;;5094900;28;19970;-77
2022/08/22 07:59:11;;;;;;;;;;;19.30;99.90;;;;;;5060879;28;19921;-77
2022/08/22 08:01:39;;;;;;;;;;;19.40;99.90;;;;;;5051866;28;20407;-76
2022/08/22 08:04:07;;;;;;;;;;;19.40;99.90;;;;;;5071064;28;20022;-77
2022/08/22 08:06:33;;;;;;;;;;;19.50;99.90;;;;;;5069205;28;19920;-77
2022/08/22 08:09:00;;;;;;;;;;;19.60;99.90;;;;;;5050406;28;19928;-77
2022/08/22 08:11:28;;;;;;;;;;;19.70;99.90;;;;;;5067783;28;19924;-77
2022/08/22 08:13:59;;;;;;;;;;;19.90;99.90;;;;;;5070969;28;20368;-77
2022/08/22 08:16:26;;;;;;;;;;;20.00;99.90;;;;;;5069594;28;19965;-76
2022/08/22 08:18:55;;;;;;;;;;;20.00;99.90;;;;;;5066246;28;19927;-77
2022/08/22 08:21:28;;;;;;;;;;;20.10;99.90;;;;;;5104416;28;19920;-77
2022/08/22 08:23:54;;;;;;;;;;;20.10;99.90;;;;;;5070388;28;19924;-77
2022/08/22 08:26:22;;;;;;;;;;;20.10;99.90;;;;;;5067337;28;19920;-77
2022/08/22 08:28:49;;;;;;;;;;;20.20;99.90;;;;;;5068899;28;20349;-77
2022/08/22 08:31:14;;;;;;;;;;;20.30;99.90;;;;;;5064839;28;20014;-77
2022/08/22 08:33:42;;;;;;;;;;;20.50;99.90;;;;;;5049390;28;19977;-77
2022/08/22 08:36:25;;;;;;;;;;;20.70;99.90;;;;;;5070354;28;20011;-77
2022/08/22 08:38:53;;;;;;;;;;;20.80;99.90;;;;;;5067717;28;19928;-77
2022/08/22 08:41:31;;;;;;;;;;;20.80;99.90;;;;;;5047087;28;19917;-77
2022/08/22 08:43:57;;;;;;;;;;;20.80;99.90;;;;;;5046309;28;19943;-77
2022/08/22 08:46:24;;;;;;;;;;;20.90;99.90;;;;;;5049188;28;20773;-77
2022/08/22 08:49:01;;;;;;;;;;;21.10;99.90;;;;;;5069335;28;19974;-77
2022/08/22 08:51:42;;;;;;;;;;;21.50;99.90;;;;;;5055355;28;19959;-76
2022/08/22 08:54:28;;;;;;;;;;;22.20;99.90;;;;;;5068306;28;19926;-76
2022/08/22 08:57:01;;;;;;;;;;;23.10;99.90;;;;;;5056688;28;19921;-77
2022/08/22 08:59:39;;;;;;;;;;;23.90;99.90;;;;;;5069050;28;19924;-77
2022/08/22 09:02:24;;;;;;;;;;;24.50;99.90;;;;;;5068847;28;20380;-76
2022/08/22 09:05:16;;;;;;;;;;;25.00;99.90;;;;;;5070431;28;19943;-77
2022/08/22 09:07:47;;;;;;;;;;;25.40;99.90;;;;;;5000576;28;19925;-77
2022/08/22 09:10:13;;;;;;;;;;;25.70;99.90;;;;;;5007792;28;20004;-77
2022/08/22 09:12:59;;;;;;;;;;;25.90;99.90;;;;;;5001732;28;20507;-77
2022/08/22 09:15:33;;;;;;;;;;;26.10;99.90;;;;;;4994492;28;19917;-78
2022/08/22 09:18:01;;;;;;;;;;;26.00;99.90;;;;;;5008286;28;19921;-78
2022/08/22 09:20:46;;;;;;;;;;;25.80;99.90;;;;;;5023952;28;19925;-77
2022/08/22 09:23:14;;;;;;;;;;;25.40;99.90;;;;;;4990669;28;20007;-78
2022/08/22 09:25:43;;;;;;;;;;;25.20;99.90;;;;;;5027544;28;19944;-77
2022/08/22 09:28:21;;;;;;;;;;;24.80;99.90;;;;;;5017219;28;19928;-77
2022/08/22 09:30:58;;;;;;;;;;;24.40;99.90;;;;;;5009664;28;19948;-77
2022/08/22 09:33:28;;;;;;;;;;;24.30;99.90;;;;;;5010068;28;19928;-77
2022/08/22 09:35:54;;;;;;;;;;;24.30;99.90;;;;;;5008461;28;19967;-77
2022/08/22 09:38:22;;;;;;;;;;;24.60;99.90;;;;;;5003223;28;20003;-77
2022/08/22 09:40:56;;;;;;;;;;;24.70;99.90;;;;;;5007706;28;19924;-78
2022/08/22 09:43:40;;;;;;;;;;;24.80;99.90;;;;;;4997457;28;19921;-78
2022/08/22 09:46:21;;;;;;;;;;;25.00;99.90;;;;;;5048091;28;19916;-77
2022/08/22 09:48:58;;;;;;;;;;;25.40;99.90;;;;;;5066556;28;19932;-77
2022/08/22 09:51:27;;;;;;;;;;;25.70;99.90;;;;;;5067958;28;19923;-78
2022/08/22 09:54:12;;;;;;;;;;;25.90;99.90;;;;;;5066629;28;20000;-78
2022/08/22 09:56:47;;;;;;;;;;;26.00;97.30;;;;;;5052820;28;20258;-77
2022/08/22 09:59:27;;;;;;;;;;;26.10;97.00;;;;;;5046315;28;19920;-78
2022/08/22 10:01:58;;;;;;;;;;;26.20;97.00;;;;;;5051273;28;19924;-78
2022/08/22 10:04:26;;;;;;;;;;;26.20;97.50;;;;;;5063478;28;19978;-77
2022/08/22 10:06:58;;;;;;;;;;;26.10;94.90;;;;;;5052106;28;20393;-78
2022/08/22 10:09:26;;;;;;;;;;;26.10;96.40;;;;;;5068531;28;20015;-77
2022/08/22 10:12:13;;;;;;;;;;;26.10;95.50;;;;;;5049356;28;19920;-78
2022/08/22 10:14:54;;;;;;;;;;;26.10;95.60;;;;;;5050394;28;19921;-78
2022/08/22 10:17:29;;;;;;;;;;;26.20;95.70;;;;;;5072079;28;19920;-78
2022/08/22 10:20:01;;;;;;;;;;;26.00;95.30;;;;;;5068655;28;19920;-78
2022/08/22 10:22:39;;;;;;;;;;;25.90;94.30;;;;;;5055382;28;20439;-78
2022/08/22 10:25:23;;;;;;;;;;;25.80;94.60;;;;;;5063062;28;19916;-78
2022/08/22 10:27:55;;;;;;;;;;;25.80;96.10;;;;;;5062598;28;19924;-78
2022/08/22 10:30:41;;;;;;;;;;;26.00;96.50;;;;;;5047791;28;19956;-78
2022/08/22 10:33:11;;;;;;;;;;;26.20;94.60;;;;;;5037644;28;19921;-78
2022/08/22 10:35:59;;;;;;;;;;;26.10;94.20;;;;;;5062168;28;19921;-78
2022/08/22 10:38:34;;;;;;;;;;;26.10;93.70;;;;;;5038909;28;20285;-77
2022/08/22 10:41:09;;;;;;;;;;;26.00;94.50;;;;;;5036725;28;19921;-77
2022/08/22 10:43:37;;;;;;;;;;;25.80;94.40;;;;;;5043941;28;19921;-77
2022/08/22 10:46:07;;;;;;;;;;;25.60;94.00;;;;;;5049360;28;19928;-78
2022/08/22 10:48:34;;;;;;;;;;;25.30;94.00;;;;;;5067726;28;19928;-77
2022/08/22 10:51:03;;;;;;;;;;;25.00;95.10;;;;;;5053834;28;19968;-77
2022/08/22 10:53:38;;;;;;;;;;;25.00;95.90;;;;;;5054349;28;19959;-78
2022/08/22 10:56:17;;;;;;;;;;;25.30;95.10;;;;;;5049639;28;19924;-78
2022/08/22 10:58:43;;;;;;;;;;;25.20;94.70;;;;;;5062713;28;19931;-78
2022/08/22 11:01:10;;;;;;;;;;;25.10;94.50;;;;;;5061314;28;19921;-78
2022/08/22 11:03:39;;;;;;;;;;;24.90;93.80;;;;;;5067510;28;19927;-77
2022/08/22 11:06:14;;;;;;;;;;;24.60;94.00;;;;;;5044690;28;20262;-78
2022/08/22 11:08:48;;;;;;;;;;;24.40;94.10;;;;;;5065969;28;19978;-78
2022/08/22 11:11:19;;;;;;;;;;;24.10;94.10;;;;;;5049679;28;19927;-78
2022/08/22 11:13:44;;;;;;;;;;;23.90;95.10;;;;;;5067648;28;19920;-78
2022/08/22 11:16:18;;;;;;;;;;;23.80;94.80;;;;;;5066510;28;19974;-77
2022/08/22 11:18:43;;;;;;;;;;;23.60;95.10;;;;;;5046841;28;19966;-78
2022/08/22 11:21:14;;;;;;;;;;;23.60;95.50;;;;;;5051060;28;19920;-78
2022/08/22 11:23:47;;;;;;;;;;;23.60;96.20;;;;;;5050886;28;20343;-78
2022/08/22 11:26:38;;;;;;;;;;;23.80;95.10;;;;;;5066528;28;20376;-78
2022/08/22 11:29:13;;;;;;;;;;;23.80;96.10;;;;;;5052080;28;19932;-78
2022/08/22 11:31:46;;;;;;;;;;;24.00;97.00;;;;;;5059077;28;19944;-78
2022/08/22 11:34:18;;;;;;;;;;;24.70;97.10;;;;;;5050703;28;19923;-77
2022/08/22 11:36:49;;;;;;;;;;;25.30;95.90;;;;;;5048714;28;19917;-77
2022/08/22 11:39:38;;;;;;;;;;;25.70;93.90;;;;;;5064549;28;19924;-78
2022/08/22 11:42:13;;;;;;;;;;;25.90;93.00;;;;;;5050017;28;19916;-78
2022/08/22 11:44:52;;;;;;;;;;;25.90;92.30;;;;;;5059428;28;19966;-78
2022/08/22 11:47:20;;;;;;;;;;;26.00;92.30;;;;;;5066265;28;20395;-77
2022/08/22 11:49:48;;;;;;;;;;;25.90;92.30;;;;;;5042995;28;19924;-77
2022/08/22 11:52:22;;;;;;;;;;;26.10;93.70;;;;;;5067320;28;19920;-78
2022/08/22 11:55:08;;;;;;;;;;;26.50;92.20;;;;;;5049148;28;19916;-77
2022/08/22 11:57:46;;;;;;;;;;;26.80;91.70;;;;;;5100175;28;19928;-76
2022/08/22 12:00:17;;;;;;;;;;;27.00;85.60;;;;;;5090023;28;19920;-77
2022/08/22 12:02:43;;;;;;;;;;;27.00;89.50;;;;;;5050701;28;19924;-77
2022/08/22 12:05:16;;;;;;;;;;;27.10;88.00;;;;;;5056010;28;19940;-77
2022/08/22 12:08:05;;;;;;;;;;;27.00;86.10;;;;;;5100131;28;20011;-77
2022/08/22 12:10:32;;;;;;;;;;;26.80;87.30;;;;;;4996724;28;20301;-76
2022/08/22 12:13:04;;;;;;;;;;;26.80;85.50;;;;;;5002418;28;19921;-77
2022/08/22 12:15:44;;;;;;;;;;;27.00;88.00;;;;;;5011343;28;20359;-77
2022/08/22 12:18:18;;;;;;;;;;;27.20;86.10;;;;;;5006940;28;19925;-77
2022/08/22 12:20:47;;;;;;;;;;;27.30;85.60;;;;;;5010770;28;19921;-77
2022/08/22 12:23:12;;;;;;;;;;;27.50;88.00;;;;;;5012878;28;20027;-77
2022/08/22 12:25:47;;;;;;;;;;;27.70;88.90;;;;;;5013039;28;20015;-77
2022/08/22 12:28:16;;;;;;;;;;;27.60;86.90;;;;;;4993575;28;19929;-77
2022/08/22 12:30:44;;;;;;;;;;;27.20;83.90;;;;;;5009249;28;19928;-77
2022/08/22 12:33:29;;;;;;;;;;;27.00;86.00;;;;;;5006597;28;19971;-77
2022/08/22 12:36:17;;;;;;;;;;;27.00;87.10;;;;;;4995469;28;20359;-77
2022/08/22 12:38:58;;;;;;;;;;;27.00;84.80;;;;;;4974312;28;20378;-76
2022/08/22 12:41:24;;;;;;;;;;;27.00;86.50;;;;;;4993349;28;19991;-77
2022/08/22 12:43:49;;;;;;;;;;;27.00;87.30;;;;;;4994527;28;20476;-77
2022/08/22 12:46:33;;;;;;;;;;;26.80;84.40;;;;;;5009402;28;20011;-77
2022/08/22 12:49:05;;;;;;;;;;;26.70;86.70;;;;;;5047307;28;19928;-77
2022/08/22 12:51:35;;;;;;;;;;;26.80;86.80;;;;;;5052241;28;20319;-77
2022/08/22 12:54:10;;;;;;;;;;;26.50;85.80;;;;;;5061165;28;20392;-78
2022/08/22 12:56:41;;;;;;;;;;;26.20;85.00;;;;;;5069943;28;19920;-77
2022/08/22 12:59:19;;;;;;;;;;;26.20;87.00;;;;;;5068255;28;19947;-77
2022/08/22 13:01:47;;;;;;;;;;;26.40;86.90;;;;;;5051758;28;19970;-76
2022/08/22 13:04:15;;;;;;;;;;;26.70;88.60;;;;;;5069846;28;19924;-77
2022/08/22 13:06:41;;;;;;;;;;;26.80;85.00;;;;;;5067344;28;19928;-78
2022/08/22 13:09:17;;;;;;;;;;;26.70;84.20;;;;;;5068818;28;19925;-76
2022/08/22 13:11:44;;;;;;;;;;;26.50;87.10;;;;;;5068952;28;19924;-78
2022/08/22 13:14:11;;;;;;;;;;;26.30;85.60;;;;;;5065281;28;20849;-77
2022/08/22 13:16:39;;;;;;;;;;;25.90;87.00;;;;;;5048458;28;19920;-77
2022/08/22 13:19:15;;;;;;;;;;;25.70;89.20;;;;;;5069723;28;20003;-77
2022/08/22 13:21:46;;;;;;;;;;;25.70;89.80;;;;;;5058389;28;19928;-77
2022/08/22 13:24:14;;;;;;;;;;;25.90;90.40;;;;;;5069622;28;19916;-77
2022/08/22 13:26:47;;;;;;;;;;;26.20;87.40;;;;;;5047539;28;20285;-77
2022/08/22 13:29:27;;;;;;;;;;;26.40;84.50;;;;;;5052698;28;20363;-76
2022/08/22 13:31:58;;;;;;;;;;;26.20;85.00;;;;;;5064944;28;19931;-76
2022/08/22 13:34:44;;;;;;;;;;;25.70;85.40;;;;;;5067432;28;19924;-75
2022/08/22 13:37:15;;;;;;;;;;;25.40;87.40;;;;;;5052941;28;20006;-77
2022/08/22 13:39:42;;;;;;;;;;;25.30;87.50;;;;;;5064398;28;20305;-76
2022/08/22 13:42:14;;;;;;;;;;;25.00;86.70;;;;;;5055218;28;19924;-76
2022/08/22 13:44:45;;;;;;;;;;;24.80;88.30;;;;;;5052598;28;20015;-76
2022/08/22 13:47:14;;;;;;;;;;;24.70;90.00;;;;;;5052546;28;19960;-75
2022/08/22 13:49:43;;;;;;;;;;;24.90;89.70;;;;;;5098522;28;19928;-77
2022/08/22 13:52:28;;;;;;;;;;;25.20;89.30;;;;;;5051601;28;20380;-78
2022/08/22 13:54:57;;;;;;;;;;;25.50;86.60;;;;;;5061328;28;19963;-76
2022/08/22 13:57:26;;;;;;;;;;;25.80;86.10;;;;;;5052779;28;20311;-75
2022/08/22 14:00:02;;;;;;;;;;;26.00;85.40;;;;;;5058208;28;19931;-75
2022/08/22 14:02:27;;;;;;;;;;;26.10;85.30;;;;;;5067779;28;20381;-75
2022/08/22 14:04:54;;;;;;;;;;;26.10;84.20;;;;;;5068052;28;19920;-76
2022/08/22 14:07:28;;;;;;;;;;;26.00;83.10;;;;;;5060158;28;19969;-76
2022/08/22 14:09:56;;;;;;;;;;;26.00;86.10;;;;;;5047284;28;19930;-76
2022/08/22 14:12:26;;;;;;;;;;;25.80;84.30;;;;;;5044543;28;19957;-75
2022/08/22 14:15:06;;;;;;;;;;;25.60;84.90;;;;;;5062130;28;19920;-76
2022/08/22 14:17:42;;;;;;;;;;;25.50;87.70;;;;;;5068151;28;19916;-76
2022/08/22 14:20:16;;;;;;;;;;;25.70;85.70;;;;;;5049342;28;19923;-76
2022/08/22 14:22:49;;;;;;;;;;;26.00;85.00;;;;;;5050925;28;19920;-75
2022/08/22 14:25:19;;;;;;;;;;;26.40;84.30;;;;;;5067189;28;19930;-76
2022/08/22 14:27:56;;;;;;;;;;;26.50;82.40;;;;;;5068462;28;20384;-76
2022/08/22 14:30:25;;;;;;;;;;;26.50;80.00;;;;;;5060238;28;20373;-76
2022/08/22 14:33:09;;;;;;;;;;;26.50;82.50;;;;;;5068215;28;19972;-75
2022/08/22 14:35:43;;;;;;;;;;;26.60;82.60;;;;;;5040265;28;20273;-75
2022/08/22 14:38:12;;;;;;;;;;;26.60;84.10;;;;;;5048043;28;19990;-75
2022/08/22 14:40:39;;;;;;;;;;;26.80;82.00;;;;;;5055165;28;19924;-75
2022/08/22 14:43:06;;;;;;;;;;;26.80;81.40;;;;;;5065250;28;19920;-75
2022/08/22 14:45:41;;;;;;;;;;;26.50;80.20;;;;;;5066180;28;20291;-75
2022/08/22 14:48:12;;;;;;;;;;;26.20;81.70;;;;;;5051302;28;20319;-75
2022/08/22 14:50:42;;;;;;;;;;;26.10;82.20;;;;;;5068106;28;19970;-75